createdAt,value
2023-03-29T00:01:00.993Z,96375.03
2023-03-29T00:02:02.931Z,96367.94
2023-03-29T00:03:04.881Z,96374.97
2023-03-29T00:04:07.010Z,96371.69
2023-03-29T00:05:09.956Z,96390.28
2023-03-29T00:06:15.209Z,96376.25
2023-03-29T00:07:16.858Z,96383.28
2023-03-29T00:08:22.007Z,96397.91
2023-03-29T00:09:26.555Z,96397.38
2023-03-29T00:10:28.503Z,96396.34
2023-03-29T00:11:30.230Z,96396.34
2023-03-29T00:12:32.251Z,96389.03
2023-03-29T00:13:34.082Z,96384.44
2023-03-29T00:14:35.795Z,96380.41
2023-03-29T00:15:37.512Z,96389.06
2023-03-29T00:16:39.694Z,96383.38
2023-03-29T00:17:41.460Z,96380.19
2023-03-29T00:18:43.785Z,96381.00
2023-03-29T00:19:46.632Z,96383.69
2023-03-29T00:20:58.963Z,96382.34
2023-03-29T00:22:00.675Z,96377.47
2023-03-29T00:23:02.385Z,96373.72
2023-03-29T00:24:04.274Z,96372.34
2023-03-29T00:25:07.286Z,96374.81
2023-03-29T00:26:08.926Z,96382.66
2023-03-29T00:27:10.571Z,96378.81
2023-03-29T00:28:13.891Z,96374.81
2023-03-29T00:29:16.018Z,96372.38
2023-03-29T00:30:17.793Z,96367.25
2023-03-29T00:31:19.469Z,96368.06
2023-03-29T00:32:21.161Z,96368.63
2023-03-29T00:33:22.858Z,96369.16
2023-03-29T00:34:26.386Z,96368.31
2023-03-29T00:35:28.039Z,96367.78
2023-03-29T00:36:29.679Z,96364.25
2023-03-29T00:37:31.603Z,96365.88
2023-03-29T00:38:33.387Z,96359.44
2023-03-29T00:39:36.323Z,96364.31
2023-03-29T00:40:43.090Z,96358.91
2023-03-29T00:41:49.727Z,96367.34
2023-03-29T00:42:51.405Z,96368.41
2023-03-29T00:44:01.755Z,96353.53
2023-03-29T00:45:12.390Z,96361.13
2023-03-29T00:46:15.355Z,96362.50
2023-03-29T00:47:18.188Z,96357.31
2023-03-29T00:48:22.526Z,96359.53
2023-03-29T00:49:24.200Z,96355.75
2023-03-29T00:50:31.657Z,96349.53
2023-03-29T00:51:35.789Z,96350.06
2023-03-29T00:52:39.600Z,96341.44
2023-03-29T00:53:48.610Z,96337.66
2023-03-29T00:54:54.274Z,96340.38
2023-03-29T00:56:14.207Z,96334.38
2023-03-29T00:57:17.408Z,96340.34
2023-03-29T00:58:23.445Z,96331.94
2023-03-29T00:59:27.607Z,96324.66
2023-03-29T01:00:33.602Z,96321.13
2023-03-29T01:03:37.402Z,96300.34
2023-03-29T01:04:53.686Z,96300.88
2023-03-29T01:05:58.662Z,96301.44
2023-03-29T01:07:28.505Z,96309.84
2023-03-29T01:08:35.589Z,96321.44
2023-03-29T01:09:40.970Z,96323.59
2023-03-29T01:10:50.250Z,96323.03
2023-03-29T01:11:55.070Z,96313.78
2023-03-29T01:13:03.246Z,96314.13
2023-03-29T01:14:07.450Z,96311.09
2023-03-29T01:15:12.204Z,96314.88
2023-03-29T01:16:20.652Z,96306.50
2023-03-29T01:17:25.850Z,96301.41
2023-03-29T01:18:27.983Z,96291.38
2023-03-29T01:19:36.959Z,96279.00
2023-03-29T01:21:24.165Z,96282.25
2023-03-29T01:22:30.696Z,96279.47
2023-03-29T01:23:55.080Z,96279.00
2023-03-29T01:25:46.921Z,96276.28
2023-03-29T01:27:12.811Z,96275.19
2023-03-29T01:28:35.135Z,96274.41
2023-03-29T01:29:48.535Z,96276.53
2023-03-29T01:30:53.602Z,96267.63
2023-03-29T01:32:22.329Z,96264.09
2023-03-29T01:33:29.251Z,96263.84
2023-03-29T01:35:03.602Z,96261.16
2023-03-29T01:36:13.792Z,96254.03
2023-03-29T01:37:30.746Z,96251.91
2023-03-29T01:38:48.574Z,96256.25
2023-03-29T01:39:52.160Z,96254.88
2023-03-29T01:40:54.939Z,96261.41
2023-03-29T01:42:09.403Z,96254.13
2023-03-29T01:43:28.635Z,96253.03
2023-03-29T01:44:42.005Z,96254.31
2023-03-29T01:46:08.122Z,96249.75
2023-03-29T01:47:21.035Z,96247.84
2023-03-29T01:48:28.209Z,96244.88
2023-03-29T01:49:40.196Z,96249.75
2023-03-29T01:51:14.043Z,96245.47
2023-03-29T01:52:27.254Z,96243.53
2023-03-29T01:53:52.184Z,96241.94
2023-03-29T01:55:01.470Z,96243.78
2023-03-29T01:56:08.545Z,96243.75
2023-03-29T01:57:10.803Z,96237.03
2023-03-29T01:58:13.160Z,96238.66
2023-03-29T01:59:20.766Z,96222.19
2023-03-29T02:00:25.387Z,96218.41
2023-03-29T02:01:32.580Z,96221.69
2023-03-29T02:02:35.000Z,96227.38
2023-03-29T02:03:42.784Z,96223.88
2023-03-29T02:04:53.483Z,96217.09
2023-03-29T02:05:56.629Z,96223.63
2023-03-29T02:07:04.474Z,96223.84
2023-03-29T02:08:08.311Z,96213.59
2023-03-29T02:09:10.680Z,96206.59
2023-03-29T02:10:15.395Z,96206.06
2023-03-29T02:11:17.891Z,96215.53
2023-03-29T02:12:20.677Z,96214.97
2023-03-29T02:13:23.768Z,96205.53
2023-03-29T02:14:27.919Z,96207.69
2023-03-29T02:15:30.697Z,96207.63
2023-03-29T02:16:37.169Z,96210.38
2023-03-29T02:17:38.997Z,96204.69
2023-03-29T02:18:45.848Z,96198.75
2023-03-29T02:19:53.834Z,96197.41
2023-03-29T02:20:57.507Z,96196.84
2023-03-29T02:22:04.600Z,96200.13
2023-03-29T02:23:28.817Z,96206.63
2023-03-29T02:24:34.598Z,96199.88
2023-03-29T02:25:38.317Z,96202.84
2023-03-29T02:26:41.953Z,96201.72
2023-03-29T02:27:44.370Z,96198.47
2023-03-29T02:28:46.165Z,96200.69
2023-03-29T02:29:50.213Z,96190.13
2023-03-29T02:31:00.229Z,96182.06
2023-03-29T02:32:02.522Z,96177.97
2023-03-29T02:33:10.975Z,96182.25
2023-03-29T02:34:28.924Z,96172.56
2023-03-29T02:35:36.684Z,96189.06
2023-03-29T02:37:01.480Z,96195.81
2023-03-29T02:38:07.378Z,96191.50
2023-03-29T02:39:13.938Z,96197.72
2023-03-29T02:40:17.110Z,96192.53
2023-03-29T02:41:20.029Z,96189.59
2023-03-29T02:42:24.221Z,96188.78
2023-03-29T02:43:28.614Z,96179.59
2023-03-29T02:44:34.184Z,96176.38
2023-03-29T02:45:38.274Z,96181.53
2023-03-29T02:46:50.087Z,96173.38
2023-03-29T02:47:56.324Z,96183.38
2023-03-29T02:49:00.636Z,96175.81
2023-03-29T02:50:02.947Z,96170.66
2023-03-29T02:51:16.330Z,96173.91
2023-03-29T02:52:24.049Z,96173.38
2023-03-29T02:53:50.478Z,96170.91
2023-03-29T02:54:54.531Z,96168.41
2023-03-29T02:55:56.837Z,96162.78
2023-03-29T02:57:06.616Z,96154.63
2023-03-29T02:58:13.766Z,96160.03
2023-03-29T02:59:18.063Z,96157.88
2023-03-29T03:00:20.531Z,96154.03
2023-03-29T03:01:23.088Z,96152.22
2023-03-29T03:02:29.789Z,96152.25
2023-03-29T03:03:32.838Z,96158.75
2023-03-29T03:04:36.668Z,96144.44
2023-03-29T03:05:39.072Z,96143.09
2023-03-29T03:06:41.808Z,96142.81
2023-03-29T03:07:48.672Z,96141.69
2023-03-29T03:08:51.730Z,96140.31
2023-03-29T03:09:53.802Z,96143.53
2023-03-29T03:10:55.934Z,96141.13
2023-03-29T03:11:58.075Z,96132.78
2023-03-29T03:13:00.897Z,96135.19
2023-03-29T03:14:06.951Z,96132.78
2023-03-29T03:15:11.914Z,96127.91
2023-03-29T03:16:15.768Z,96127.66
2023-03-29T03:17:19.295Z,96131.47
2023-03-29T03:18:23.793Z,96125.22
2023-03-29T03:19:26.376Z,96129.22
2023-03-29T03:20:28.123Z,96122.72
2023-03-29T03:21:31.785Z,96119.97
2023-03-29T03:22:36.889Z,96119.16
2023-03-29T03:23:39.077Z,96121.31
2023-03-29T03:24:42.085Z,96118.88
2023-03-29T03:25:46.276Z,96116.78
2023-03-29T03:26:50.093Z,96117.59
2023-03-29T03:27:53.726Z,96114.41
2023-03-29T03:29:01.247Z,96113.00
2023-03-29T03:30:22.960Z,96115.47
2023-03-29T03:31:55.387Z,96112.75
2023-03-29T03:33:18.538Z,96110.28
2023-03-29T03:34:38.994Z,96110.56
2023-03-29T03:35:43.425Z,96111.94
2023-03-29T03:36:58.048Z,96105.72
2023-03-29T03:38:00.664Z,96100.34
2023-03-29T03:39:07.222Z,96097.41
2023-03-29T03:40:12.266Z,96100.44
2023-03-29T03:41:16.071Z,96095.78
2023-03-29T03:42:18.593Z,96093.63
2023-03-29T03:43:21.827Z,96103.41
2023-03-29T03:44:25.303Z,96099.31
2023-03-29T03:45:43.854Z,96100.69
2023-03-29T03:46:49.651Z,96095.28
2023-03-29T03:47:52.099Z,96098.03
2023-03-29T03:49:29.184Z,96089.34
2023-03-29T03:50:32.083Z,96095.28
2023-03-29T03:51:35.568Z,96095.50
2023-03-29T03:52:38.544Z,96093.84
2023-03-29T03:53:41.891Z,96089.78
2023-03-29T03:54:51.123Z,96090.59
2023-03-29T03:56:18.308Z,96083.81
2023-03-29T03:57:38.678Z,96074.31
2023-03-29T03:58:44.385Z,96070.22
2023-03-29T03:59:46.397Z,96076.13
2023-03-29T04:00:55.323Z,96078.78
2023-03-29T04:02:18.576Z,96074.25
2023-03-29T04:03:22.113Z,96073.38
2023-03-29T04:04:25.185Z,96074.47
2023-03-29T04:05:50.421Z,96072.25
2023-03-29T04:07:03.263Z,96066.50
2023-03-29T04:08:48.115Z,96076.78
2023-03-29T04:10:13.937Z,96075.06
2023-03-29T04:11:37.385Z,96079.44
2023-03-29T04:12:40.286Z,96077.06
2023-03-29T04:13:43.052Z,96067.53
2023-03-29T04:15:05.327Z,96074.56
2023-03-29T04:16:09.639Z,96071.00
2023-03-29T04:17:14.463Z,96073.38
2023-03-29T04:18:40.858Z,96071.63
2023-03-29T04:19:43.372Z,96077.31
2023-03-29T04:20:46.436Z,96071.81
2023-03-29T04:21:51.657Z,96075.09
2023-03-29T04:22:55.621Z,96071.47
2023-03-29T04:23:57.625Z,96064.66
2023-03-29T04:25:22.916Z,96071.63
2023-03-29T04:26:25.279Z,96060.44
2023-03-29T04:27:37.246Z,96068.31
2023-03-29T04:28:45.954Z,96059.84
2023-03-29T04:29:57.409Z,96048.56
2023-03-29T04:31:14.641Z,96052.66
2023-03-29T04:32:25.664Z,96057.44
2023-03-29T04:33:33.472Z,96053.34
2023-03-29T04:34:42.118Z,96055.75
2023-03-29T04:35:44.629Z,96052.25
2023-03-29T04:36:51.305Z,96047.34
2023-03-29T04:37:57.469Z,96059.53
2023-03-29T04:39:01.828Z,96064.28
2023-03-29T04:40:09.760Z,96064.19
2023-03-29T04:41:27.766Z,96067.50
2023-03-29T04:42:49.510Z,96064.94
2023-03-29T04:43:53.638Z,96067.66
2023-03-29T04:45:01.156Z,96077.31
2023-03-29T04:46:27.383Z,96075.19
2023-03-29T04:47:48.423Z,96070.81
2023-03-29T04:48:54.845Z,96064.94
2023-03-29T04:50:07.427Z,96077.84
2023-03-29T04:51:18.095Z,96068.38
2023-03-29T04:52:23.222Z,96073.72
2023-03-29T04:53:26.872Z,96064.06
2023-03-29T04:54:29.146Z,96066.41
2023-03-29T04:56:01.039Z,96069.44
2023-03-29T04:57:29.479Z,96066.72
2023-03-29T04:58:39.766Z,96066.25
2023-03-29T04:59:42.824Z,96060.47
2023-03-29T05:01:11.034Z,96056.50
2023-03-29T05:02:18.426Z,96062.16
2023-03-29T05:03:23.467Z,96080.56
2023-03-29T05:04:33.153Z,96078.41
2023-03-29T05:05:44.089Z,96074.91
2023-03-29T05:06:46.339Z,96068.63
2023-03-29T05:07:48.447Z,96072.63
2023-03-29T05:08:53.477Z,96064.81
2023-03-29T05:10:00.412Z,96073.00
2023-03-29T05:11:03.415Z,96068.09
2023-03-29T05:12:06.890Z,96072.41
2023-03-29T05:13:22.376Z,96067.00
2023-03-29T05:14:24.317Z,96069.72
2023-03-29T05:15:27.990Z,96073.50
2023-03-29T05:16:32.759Z,96062.88
2023-03-29T05:17:35.385Z,96067.56
2023-03-29T05:18:43.075Z,96066.75
2023-03-29T05:19:46.340Z,96073.56
2023-03-29T05:20:53.530Z,96066.47
2023-03-29T05:21:56.542Z,96067.22
2023-03-29T05:23:01.979Z,96072.94
2023-03-29T05:24:33.706Z,96070.22
2023-03-29T05:25:42.100Z,96066.09
2023-03-29T05:26:44.931Z,96070.72
2023-03-29T05:27:50.090Z,96066.19
2023-03-29T05:28:53.522Z,96075.94
2023-03-29T05:29:58.019Z,96071.53
2023-03-29T05:31:17.257Z,96069.19
2023-03-29T05:32:24.165Z,96064.00
2023-03-29T05:33:26.095Z,96061.44
2023-03-29T05:34:31.571Z,96064.66
2023-03-29T05:35:37.354Z,96061.06
2023-03-29T05:36:45.648Z,96057.28
2023-03-29T05:37:48.214Z,96064.44
2023-03-29T05:38:50.362Z,96060.91
2023-03-29T05:39:55.029Z,96054.03
2023-03-29T05:41:14.197Z,96059.75
2023-03-29T05:42:54.856Z,96053.81
2023-03-29T05:43:57.197Z,96053.09
2023-03-29T05:45:02.560Z,96052.72
2023-03-29T05:46:06.264Z,96051.47
2023-03-29T05:47:08.380Z,96057.31
2023-03-29T05:48:11.621Z,96053.81
2023-03-29T05:49:17.155Z,96052.50
2023-03-29T05:50:42.391Z,96056.31
2023-03-29T05:51:46.713Z,96059.03
2023-03-29T05:52:49.357Z,96072.50
2023-03-29T05:53:53.386Z,96062.09
2023-03-29T05:54:56.810Z,96073.47
2023-03-29T05:55:59.177Z,96072.78
2023-03-29T05:57:05.077Z,96073.53
2023-03-29T05:58:08.952Z,96070.53
2023-03-29T05:59:11.859Z,96073.41
2023-03-29T06:00:23.643Z,96066.19
2023-03-29T06:01:32.779Z,96068.22
2023-03-29T06:02:42.537Z,96077.09
2023-03-29T06:03:48.086Z,96066.66
2023-03-29T06:04:52.221Z,96069.59
2023-03-29T06:06:15.369Z,96067.22
2023-03-29T06:07:18.128Z,96069.13
2023-03-29T06:08:35.141Z,96069.00
2023-03-29T06:09:48.109Z,96073.94
2023-03-29T06:10:52.065Z,96080.00
2023-03-29T06:12:20.548Z,96066.31
2023-03-29T06:13:31.138Z,96071.78
2023-03-29T06:14:32.986Z,96063.97
2023-03-29T06:15:52.703Z,96072.34
2023-03-29T06:16:55.159Z,96070.72
2023-03-29T06:17:57.457Z,96068.22
2023-03-29T06:18:59.846Z,96061.88
2023-03-29T06:20:08.510Z,96052.66
2023-03-29T06:21:11.125Z,96064.28
2023-03-29T06:22:14.993Z,96065.16
2023-03-29T06:23:18.214Z,96071.84
2023-03-29T06:24:20.799Z,96069.13
2023-03-29T06:25:28.759Z,96065.69
2023-03-29T06:26:31.054Z,96065.69
2023-03-29T06:27:33.616Z,96067.16
2023-03-29T06:28:36.633Z,96068.31
2023-03-29T06:29:41.404Z,96067.69
2023-03-29T06:30:44.754Z,96061.34
2023-03-29T06:31:47.324Z,96062.44
2023-03-29T06:33:08.986Z,96071.72
2023-03-29T06:34:25.980Z,96063.06
2023-03-29T06:35:57.886Z,96067.00
2023-03-29T06:37:03.598Z,96067.28
2023-03-29T06:38:05.729Z,96067.19
2023-03-29T06:39:27.829Z,96064.88
2023-03-29T06:40:48.764Z,96063.25
2023-03-29T06:41:52.009Z,96069.41
2023-03-29T06:43:13.311Z,96068.41
2023-03-29T06:44:28.836Z,96066.19
2023-03-29T06:45:40.360Z,96072.13
2023-03-29T06:46:51.911Z,96072.44
2023-03-29T06:47:54.344Z,96082.59
2023-03-29T06:48:56.963Z,96078.28
2023-03-29T06:50:06.857Z,96070.22
2023-03-29T06:51:21.123Z,96082.31
2023-03-29T06:52:26.296Z,96073.97
2023-03-29T06:53:35.462Z,96082.94
2023-03-29T06:54:41.647Z,96076.56
2023-03-29T06:55:44.308Z,96080.09
2023-03-29T06:57:08.207Z,96078.69
2023-03-29T06:58:11.370Z,96085.63
2023-03-29T06:59:15.706Z,96080.78
2023-03-29T07:00:29.947Z,96086.13
2023-03-29T07:01:53.025Z,96093.88
2023-03-29T07:03:20.938Z,96089.53
2023-03-29T07:04:26.694Z,96093.28
2023-03-29T07:05:47.867Z,96094.97
2023-03-29T07:07:01.854Z,96098.88
2023-03-29T07:08:05.801Z,96103.44
2023-03-29T07:09:19.586Z,96094.97
2023-03-29T07:10:53.587Z,96094.16
2023-03-29T07:12:14.364Z,96098.59
2023-03-29T07:13:17.645Z,96095.88
2023-03-29T07:14:19.917Z,96093.56
2023-03-29T07:15:23.272Z,96095.78
2023-03-29T07:17:01.372Z,96108.97
2023-03-29T07:18:08.896Z,96102.91
2023-03-29T07:19:12.723Z,96108.84
2023-03-29T07:20:29.437Z,96111.69
2023-03-29T07:21:40.491Z,96110.56
2023-03-29T07:22:44.103Z,96109.09
2023-03-29T07:23:46.154Z,96116.25
2023-03-29T07:24:50.461Z,96121.09
2023-03-29T07:25:53.282Z,96116.25
2023-03-29T07:27:03.799Z,96113.31
2023-03-29T07:28:08.421Z,96114.72
2023-03-29T07:29:10.763Z,96118.06
2023-03-29T07:30:16.980Z,96114.03
2023-03-29T07:31:19.201Z,96120.75
2023-03-29T07:32:28.493Z,96115.91
2023-03-29T07:33:53.747Z,96115.50
2023-03-29T07:34:55.778Z,96124.56
2023-03-29T07:36:05.876Z,96122.34
2023-03-29T07:37:09.557Z,96116.31
2023-03-29T07:38:15.931Z,96126.69
2023-03-29T07:39:26.325Z,96126.56
2023-03-29T07:40:59.796Z,96117.00
2023-03-29T07:42:22.392Z,96120.53
2023-03-29T07:43:25.902Z,96118.69
2023-03-29T07:44:29.820Z,96125.38
2023-03-29T07:45:32.905Z,96115.16
2023-03-29T07:46:45.652Z,96121.75
2023-03-29T07:47:49.295Z,96120.63
2023-03-29T07:48:51.427Z,96127.06
2023-03-29T07:49:53.687Z,96127.59
2023-03-29T07:50:56.295Z,96128.56
2023-03-29T07:52:05.440Z,96124.72
2023-03-29T07:53:13.836Z,96128.00
2023-03-29T07:54:16.868Z,96122.34
2023-03-29T07:55:33.340Z,96128.00
2023-03-29T07:56:44.708Z,96121.34
2023-03-29T07:58:14.439Z,96123.03
2023-03-29T07:59:18.737Z,96126.03
2023-03-29T08:00:28.101Z,96126.72
2023-03-29T08:01:52.644Z,96118.25
2023-03-29T08:03:14.358Z,96120.69
2023-03-29T08:04:19.278Z,96123.69
2023-03-29T08:05:41.651Z,96124.63
2023-03-29T08:06:50.449Z,96133.06
2023-03-29T08:07:55.883Z,96130.03
2023-03-29T08:09:16.450Z,96130.16
2023-03-29T08:10:20.758Z,96122.44
2023-03-29T08:11:55.297Z,96119.56
2023-03-29T08:13:08.596Z,96118.88
2023-03-29T08:14:22.075Z,96128.34
2023-03-29T08:15:46.335Z,96117.94
2023-03-29T08:17:00.219Z,96119.50
2023-03-29T08:18:02.199Z,96107.94
2023-03-29T08:19:05.247Z,96111.69
2023-03-29T08:20:26.517Z,96111.03
2023-03-29T08:21:31.881Z,96116.75
2023-03-29T08:22:34.470Z,96112.47
2023-03-29T08:23:46.352Z,96110.72
2023-03-29T08:24:57.471Z,96112.38
2023-03-29T08:26:05.565Z,96110.75
2023-03-29T08:27:08.304Z,96120.38
2023-03-29T08:28:10.263Z,96115.16
2023-03-29T08:29:19.927Z,96106.06
2023-03-29T08:30:22.905Z,96116.41
2023-03-29T08:31:26.554Z,96110.66
2023-03-29T08:32:29.560Z,96107.94
2023-03-29T08:33:32.505Z,96107.47
2023-03-29T08:35:12.940Z,96106.84
2023-03-29T08:36:28.094Z,96106.84
2023-03-29T08:37:33.638Z,96103.16
2023-03-29T08:38:36.190Z,96116.53
2023-03-29T08:39:40.412Z,96103.00
2023-03-29T08:41:00.028Z,96118.59
2023-03-29T08:42:16.631Z,96112.50
2023-03-29T08:43:23.036Z,96118.13
2023-03-29T08:45:08.298Z,96115.06
2023-03-29T08:46:16.909Z,96125.06
2023-03-29T08:47:38.104Z,96113.44
2023-03-29T08:48:46.383Z,96111.69
2023-03-29T08:49:57.148Z,96107.50
2023-03-29T08:51:23.385Z,96116.03
2023-03-29T08:52:38.131Z,96119.72
2023-03-29T08:54:02.735Z,96122.13
2023-03-29T08:55:43.506Z,96118.91
2023-03-29T08:57:19.791Z,96116.50
2023-03-29T08:58:29.259Z,96113.31
2023-03-29T08:59:33.699Z,96120.72
2023-03-29T09:00:47.834Z,96124.25
2023-03-29T09:01:53.938Z,96115.06
2023-03-29T09:02:57.665Z,96113.63
2023-03-29T09:04:03.666Z,96119.72
2023-03-29T09:05:31.314Z,96117.97
2023-03-29T09:06:44.451Z,96113.94
2023-03-29T09:07:53.736Z,96112.47
2023-03-29T09:08:57.371Z,96113.28
2023-03-29T09:10:01.400Z,96116.44
2023-03-29T09:11:28.214Z,96111.53
2023-03-29T09:12:30.374Z,96112.59
2023-03-29T09:14:02.916Z,96109.06
2023-03-29T09:15:19.754Z,96112.59
2023-03-29T09:16:38.894Z,96111.31
2023-03-29T09:18:08.503Z,96110.81
2023-03-29T09:19:34.586Z,96112.28
2023-03-29T09:20:54.030Z,96107.28
2023-03-29T09:22:09.416Z,96107.75
2023-03-29T09:23:39.257Z,96105.81
2023-03-29T09:25:01.840Z,96110.66
2023-03-29T09:26:04.236Z,96108.38
2023-03-29T09:27:28.014Z,96102.56
2023-03-29T09:28:53.657Z,96109.56
2023-03-29T09:30:26.104Z,96100.59
2023-03-29T09:31:43.054Z,96101.22
2023-03-29T09:32:55.478Z,96103.97
2023-03-29T09:34:24.184Z,96118.03
2023-03-29T09:35:33.606Z,96108.41
2023-03-29T09:36:56.710Z,96109.63
2023-03-29T09:37:58.816Z,96110.13
2023-03-29T09:39:01.346Z,96112.84
2023-03-29T09:40:14.057Z,96109.97
2023-03-29T09:41:57.365Z,96114.34
2023-03-29T09:43:02.310Z,96112.41
2023-03-29T09:44:27.796Z,96116.91
2023-03-29T09:45:38.848Z,96107.88
2023-03-29T09:46:52.994Z,96100.78
2023-03-29T09:47:58.933Z,96101.13
2023-03-29T09:49:07.684Z,96099.53
2023-03-29T09:50:30.032Z,96101.91
2023-03-29T09:51:34.649Z,96100.97
2023-03-29T09:52:37.459Z,96105.63
2023-03-29T09:53:49.336Z,96095.03
2023-03-29T09:55:04.957Z,96099.84
2023-03-29T09:56:19.475Z,96099.22
2023-03-29T09:57:27.117Z,96088.13
2023-03-29T09:58:32.782Z,96097.09
2023-03-29T09:59:36.097Z,96088.69
2023-03-29T10:00:42.295Z,96090.97
2023-03-29T10:01:47.501Z,96083.19
2023-03-29T10:02:57.406Z,96087.09
2023-03-29T10:04:10.990Z,96087.22
2023-03-29T10:05:16.356Z,96085.09
2023-03-29T10:06:21.336Z,96082.94
2023-03-29T10:07:44.560Z,96091.47
2023-03-29T10:08:51.627Z,96086.06
2023-03-29T10:09:56.345Z,96087.88
2023-03-29T10:10:59.171Z,96093.91
2023-03-29T10:12:05.518Z,96092.13
2023-03-29T10:13:12.724Z,96092.66
2023-03-29T10:14:23.266Z,96091.34
2023-03-29T10:15:29.978Z,96089.41
2023-03-29T10:16:46.610Z,96084.41
2023-03-29T10:17:48.739Z,96082.78
2023-03-29T10:18:51.524Z,96084.47
2023-03-29T10:19:58.263Z,96088.34
2023-03-29T10:21:03.075Z,96086.81
2023-03-29T10:22:16.413Z,96079.88
2023-03-29T10:23:19.037Z,96083.47
2023-03-29T10:24:26.065Z,96077.72
2023-03-29T10:25:31.822Z,96080.59
2023-03-29T10:26:34.671Z,96074.66
2023-03-29T10:27:36.772Z,96069.84
2023-03-29T10:28:40.386Z,96072.16
2023-03-29T10:29:44.060Z,96069.81
2023-03-29T10:30:49.089Z,96065.19
2023-03-29T10:31:51.409Z,96069.63
2023-03-29T10:32:59.199Z,96062.34
2023-03-29T10:34:04.100Z,96064.53
2023-03-29T10:35:25.009Z,96048.19
2023-03-29T10:36:27.754Z,96040.63
2023-03-29T10:37:30.031Z,96050.72
2023-03-29T10:38:33.469Z,96039.97
2023-03-29T10:39:35.792Z,96046.00
2023-03-29T10:40:43.558Z,96047.63
2023-03-29T10:41:45.878Z,96051.19
2023-03-29T10:42:52.289Z,96053.00
2023-03-29T10:43:54.948Z,96046.09
2023-03-29T10:45:00.550Z,96058.47
2023-03-29T10:46:13.479Z,96054.47
2023-03-29T10:47:18.049Z,96053.84
2023-03-29T10:48:26.408Z,96054.09
2023-03-29T10:49:28.316Z,96058.88
2023-03-29T10:50:35.092Z,96051.81
2023-03-29T10:51:37.608Z,96047.22
2023-03-29T10:52:40.411Z,96053.41
2023-03-29T10:53:42.774Z,96052.97
2023-03-29T10:54:45.330Z,96052.47
2023-03-29T10:56:23.502Z,96043.66
2023-03-29T10:57:46.900Z,96045.72
2023-03-29T10:59:02.384Z,96052.03
2023-03-29T11:00:11.370Z,96054.44
2023-03-29T11:01:16.771Z,96051.00
2023-03-29T11:02:42.099Z,96052.53
2023-03-29T11:04:05.867Z,96045.38
2023-03-29T11:05:26.514Z,96051.38
2023-03-29T11:06:43.453Z,96050.28
2023-03-29T11:08:07.082Z,96060.78
2023-03-29T11:09:24.771Z,96054.47
2023-03-29T11:10:57.916Z,96056.94
2023-03-29T11:12:22.070Z,96055.25
2023-03-29T11:13:33.456Z,96062.38
2023-03-29T11:14:44.316Z,96067.06
2023-03-29T11:16:05.230Z,96065.94
2023-03-29T11:17:19.024Z,96070.38
2023-03-29T11:18:54.711Z,96069.13
2023-03-29T11:20:13.360Z,96065.94
2023-03-29T11:21:33.480Z,96058.16
2023-03-29T11:22:44.835Z,96057.38
2023-03-29T11:23:52.245Z,96058.59
2023-03-29T11:25:21.514Z,96054.16
2023-03-29T11:26:48.713Z,96049.09
2023-03-29T11:28:21.559Z,96056.34
2023-03-29T11:29:25.483Z,96058.03
2023-03-29T11:30:36.444Z,96056.41
2023-03-29T11:31:48.396Z,96054.13
2023-03-29T11:32:51.755Z,96056.53
2023-03-29T11:34:12.183Z,96060.53
2023-03-29T11:35:23.912Z,96061.41
2023-03-29T11:36:36.008Z,96054.69
2023-03-29T11:37:51.886Z,96059.78
2023-03-29T11:39:04.899Z,96053.00
2023-03-29T11:40:36.952Z,96049.47
2023-03-29T11:41:42.081Z,96053.38
2023-03-29T11:42:47.721Z,96051.53
2023-03-29T11:43:51.753Z,96043.66
2023-03-29T11:44:56.311Z,96036.19
2023-03-29T11:46:06.494Z,96049.19
2023-03-29T11:47:37.617Z,96057.78
2023-03-29T11:48:51.227Z,96052.69
2023-03-29T11:49:58.811Z,96052.72
2023-03-29T11:51:21.648Z,96060.06
2023-03-29T11:52:44.194Z,96055.03
2023-03-29T11:53:49.173Z,96056.09
2023-03-29T11:54:57.355Z,96054.13
2023-03-29T11:56:09.086Z,96057.66
2023-03-29T11:57:33.596Z,96056.41
2023-03-29T11:58:39.123Z,96051.81
2023-03-29T11:59:49.032Z,96054.84
2023-03-29T12:01:10.135Z,96062.72
2023-03-29T12:02:38.305Z,96058.81
2023-03-29T12:03:57.004Z,96050.47
2023-03-29T12:05:02.342Z,96048.16
2023-03-29T12:06:12.203Z,96048.16
2023-03-29T12:07:17.479Z,96044.25
2023-03-29T12:08:41.016Z,96044.00
2023-03-29T12:09:50.346Z,96037.47
2023-03-29T12:10:58.527Z,96020.56
2023-03-29T12:12:13.333Z,96032.34
2023-03-29T12:13:15.172Z,96028.78
2023-03-29T12:14:29.895Z,96027.50
2023-03-29T12:15:50.394Z,96028.75
2023-03-29T12:17:01.775Z,96032.94
2023-03-29T12:18:15.402Z,96031.91
2023-03-29T12:19:23.160Z,96029.34
2023-03-29T12:20:28.722Z,96032.47
2023-03-29T12:21:35.498Z,96028.06
2023-03-29T12:22:38.284Z,96020.09
2023-03-29T12:23:42.372Z,96024.16
2023-03-29T12:24:46.607Z,96022.06
2023-03-29T12:25:58.421Z,96028.00
2023-03-29T12:27:20.829Z,96023.78
2023-03-29T12:28:41.336Z,96020.78
2023-03-29T12:29:55.813Z,96024.94
2023-03-29T12:31:42.409Z,96027.91
2023-03-29T12:33:15.323Z,96030.03
2023-03-29T12:34:58.876Z,96029.50
2023-03-29T12:36:09.583Z,96022.56
2023-03-29T12:38:05.777Z,96026.44
2023-03-29T12:39:37.689Z,96016.63
2023-03-29T12:41:23.398Z,96019.41
2023-03-29T12:43:05.612Z,96010.94
2023-03-29T12:44:25.469Z,96015.22
2023-03-29T12:45:39.932Z,96014.69
2023-03-29T12:46:42.056Z,96012.72
2023-03-29T12:47:45.705Z,96009.75
2023-03-29T12:48:51.790Z,96013.84
2023-03-29T12:49:57.517Z,96014.88
2023-03-29T12:51:04.686Z,96003.03
2023-03-29T12:52:27.805Z,96003.09
2023-03-29T12:53:35.359Z,96001.06
2023-03-29T12:54:37.727Z,96004.84
2023-03-29T12:55:43.966Z,96001.47
2023-03-29T12:56:52.574Z,96005.44
2023-03-29T12:58:26.990Z,95997.31
2023-03-29T12:59:42.535Z,95988.88
2023-03-29T13:00:46.132Z,95982.84
2023-03-29T13:02:28.632Z,95989.28
2023-03-29T13:03:37.525Z,95989.88
2023-03-29T13:04:52.510Z,95985.16
2023-03-29T13:06:06.631Z,95987.84
2023-03-29T13:07:16.044Z,95982.47
2023-03-29T13:08:28.691Z,95989.44
2023-03-29T13:09:48.372Z,95983.78
2023-03-29T13:10:54.863Z,95984.34
2023-03-29T13:12:04.491Z,95989.66
2023-03-29T13:13:23.716Z,95983.22
2023-03-29T13:14:30.796Z,95969.19
2023-03-29T13:15:34.941Z,95974.72
2023-03-29T13:16:38.207Z,95971.59
2023-03-29T13:17:58.376Z,95978.00
2023-03-29T13:19:10.499Z,95983.13
2023-03-29T13:20:37.657Z,95973.09
2023-03-29T13:22:04.734Z,95976.44
2023-03-29T13:23:32.301Z,95972.97
2023-03-29T13:24:45.939Z,95966.22
2023-03-29T13:26:00.626Z,95961.94
2023-03-29T13:27:27.509Z,95963.25
2023-03-29T13:28:45.460Z,95968.66
2023-03-29T13:29:56.346Z,95969.53
2023-03-29T13:31:27.309Z,95969.69
2023-03-29T13:32:41.500Z,95965.22
2023-03-29T13:33:49.540Z,95971.00
2023-03-29T13:35:06.390Z,95967.38
2023-03-29T13:36:59.401Z,95971.31
2023-03-29T13:38:23.274Z,95972.41
2023-03-29T13:39:29.576Z,95972.25
2023-03-29T13:40:40.609Z,95971.91
2023-03-29T13:41:43.249Z,95962.22
2023-03-29T13:42:58.721Z,95960.09
2023-03-29T13:44:01.347Z,95944.00
2023-03-29T13:45:23.956Z,95948.47
2023-03-29T13:46:47.552Z,95949.53
2023-03-29T13:48:02.617Z,95952.81
2023-03-29T13:49:13.138Z,95953.09
2023-03-29T13:50:22.177Z,95956.38
2023-03-29T13:51:54.011Z,95954.13
2023-03-29T13:53:04.225Z,95956.94
2023-03-29T13:54:24.204Z,95959.13